Time;durP1;ratioP1;P1;durP2;ratioP2;P2;SDS_P1;SDS_P2;PMS_P1;PMS_P2;Temp;Humidity;BMP_temperature;BMP_pressure;BME280_temperature;BME280_humidity;BME280_pressure;Samples;Min_cycle;Max_cycle;Signal;HPM_P1;HPM_P2
2022/02/24 00:01:53;;;;;;;4.65;3.05;;;1.10;91.40;;;;;;5016995;28;20431;-80
2022/02/24 00:04:19;;;;;;;6.05;3.38;;;1.10;91.40;;;;;;4998829;28;20041;-83
2022/02/24 00:06:44;;;;;;;5.13;3.40;;;1.10;91.40;;;;;;4999230;28;20104;-82
2022/02/24 00:09:10;;;;;;;4.75;4.03;;;1.10;91.50;;;;;;5016158;28;20030;-81
2022/02/24 00:11:36;;;;;;;4.20;3.00;;;1.10;91.50;;;;;;5016127;28;20475;-82
2022/02/24 00:14:02;;;;;;;5.68;3.47;;;1.10;91.50;;;;;;4998950;28;20026;-79
2022/02/24 00:16:28;;;;;;;4.90;3.25;;;1.10;91.50;;;;;;5016285;28;20030;-81
2022/02/24 00:18:54;;;;;;;4.70;4.07;;;1.10;91.40;;;;;;5016136;28;20030;-78
2022/02/24 00:21:21;;;;;;;4.15;3.00;;;1.10;91.40;;;;;;4997882;28;20467;-78
2022/02/24 00:23:47;;;;;;;6.07;3.40;;;1.10;91.30;;;;;;4997630;28;20030;-84
2022/02/24 00:26:13;;;;;;;4.47;3.30;;;1.10;91.40;;;;;;4997073;28;20050;-85
2022/02/24 00:28:39;;;;;;;3.50;2.53;;;1.10;91.40;;;;;;4996115;28;20027;-84
2022/02/24 00:31:08;;;;;;;5.78;3.55;;;1.10;91.40;;;;;;5016926;28;20026;-86
2022/02/24 00:33:38;;;;;;;3.22;2.50;;;1.00;91.40;;;;;;5010413;28;20030;-83
2022/02/24 00:36:05;;;;;;;6.25;2.88;;;1.00;91.50;;;;;;5020717;28;20660;-85
2022/02/24 00:38:31;;;;;;;5.35;2.97;;;1.00;91.40;;;;;;5008550;28;20395;-80
2022/02/24 00:40:57;;;;;;;4.38;2.88;;;1.00;91.30;;;;;;5016161;28;20477;-85
2022/02/24 00:43:23;;;;;;;4.32;2.80;;;1.00;91.30;;;;;;5017074;28;20049;-82
2022/02/24 00:45:49;;;;;;;3.95;2.88;;;1.00;91.30;;;;;;5021436;28;20029;-83
2022/02/24 00:48:15;;;;;;;4.13;2.60;;;1.00;91.30;;;;;;5017976;28;20076;-83
2022/02/24 00:50:41;;;;;;;4.75;3.30;;;1.00;91.60;;;;;;4998351;28;20026;-82
2022/02/24 00:53:06;;;;;;;5.55;3.42;;;1.00;91.30;;;;;;5017968;28;20025;-84
2022/02/24 00:55:33;;;;;;;4.82;2.63;;;1.10;91.30;;;;;;5031824;28;20049;-85
2022/02/24 00:57:59;;;;;;;5.88;3.08;;;1.10;91.30;;;;;;5000232;28;20022;-87
2022/02/24 01:00:25;;;;;;;4.25;3.00;;;1.10;91.20;;;;;;5018233;28;20037;-86
2022/02/24 01:02:50;;;;;;;6.95;2.55;;;1.10;91.20;;;;;;5017222;28;20026;-81
2022/02/24 01:05:16;;;;;;;3.72;2.67;;;1.20;91.20;;;;;;4999496;28;20471;-80
2022/02/24 01:07:42;;;;;;;5.05;2.55;;;1.20;91.10;;;;;;5024786;28;20033;-78
2022/02/24 01:10:09;;;;;;;5.68;2.85;;;1.30;91.00;;;;;;5026839;28;20085;-80
2022/02/24 01:12:36;;;;;;;5.13;2.78;;;1.20;90.90;;;;;;4997969;28;20030;-82
2022/02/24 01:15:06;;;;;;;2.45;2.00;;;1.20;90.80;;;;;;5014665;28;20133;-81
2022/02/24 01:17:39;;;;;;;2.67;1.83;;;1.20;90.70;;;;;;4998199;28;20056;-82
2022/02/24 01:20:07;;;;;;;4.15;2.58;;;1.20;90.70;;;;;;5015535;28;20030;-86
2022/02/24 01:22:33;;;;;;;3.65;2.38;;;1.20;90.70;;;;;;4999023;28;20029;-82
2022/02/24 01:24:59;;;;;;;5.75;2.55;;;1.20;90.80;;;;;;5015901;28;20032;-83
2022/02/24 01:27:25;;;;;;;9.93;7.28;;;1.20;90.60;;;;;;5015467;28;20045;-83
2022/02/24 01:29:51;;;;;;;4.53;2.90;;;1.20;90.60;;;;;;5015087;28;20115;-81
2022/02/24 01:32:17;;;;;;;3.63;2.28;;;1.10;90.50;;;;;;5015240;28;20109;-83
2022/02/24 01:34:43;;;;;;;3.65;2.33;;;1.10;90.40;;;;;;5015580;28;21124;-82
2022/02/24 01:37:09;;;;;;;3.72;2.50;;;1.10;90.30;;;;;;5033280;28;20032;-81
2022/02/24 01:39:35;;;;;;;2.60;1.92;;;1.10;90.30;;;;;;5039221;28;20022;-81
2022/02/24 01:42:01;;;;;;;2.67;2.15;;;1.10;90.40;;;;;;5040175;28;20014;-82
2022/02/24 01:44:42;;;;;;;2.58;1.95;;;1.20;90.40;;;;;;5019641;28;20022;-83
2022/02/24 01:47:08;;;;;;;2.90;1.95;;;1.20;90.20;;;;;;5010942;28;20026;-83
2022/02/24 01:49:34;;;;;;;3.33;1.75;;;1.20;90.10;;;;;;5018325;28;20081;-81
2022/02/24 01:52:02;;;;;;;2.38;1.75;;;1.20;90.00;;;;;;5028507;28;20030;-86
2022/02/24 01:54:28;;;;;;;6.43;2.40;;;1.20;89.70;;;;;;5006889;28;20030;-80
2022/02/24 01:56:55;;;;;;;3.85;2.10;;;1.30;89.40;;;;;;5010516;28;20061;-85
2022/02/24 01:59:21;;;;;;;5.65;1.90;;;1.30;88.80;;;;;;5035045;28;20048;-83
2022/02/24 02:01:47;;;;;;;3.35;2.20;;;1.30;88.50;;;;;;5019772;28;20109;-83
2022/02/24 02:04:13;;;;;;;2.10;1.60;;;1.30;87.80;;;;;;4997984;28;20034;-84
2022/02/24 02:06:39;;;;;;;1.17;0.90;;;1.30;87.30;;;;;;4998082;28;20018;-81
2022/02/24 02:09:06;;;;;;;1.83;1.00;;;1.30;86.50;;;;;;5014859;28;20033;-81
2022/02/24 02:11:32;;;;;;;2.72;1.40;;;1.40;85.40;;;;;;5014320;28;20565;-83
2022/02/24 02:13:57;;;;;;;2.80;1.63;;;1.40;84.80;;;;;;5014098;28;20109;-79
2022/02/24 02:16:23;;;;;;;2.22;1.55;;;1.40;84.40;;;;;;5014276;28;20559;-83
2022/02/24 02:18:49;;;;;;;3.42;1.73;;;1.40;84.60;;;;;;5013507;28;20084;-81
2022/02/24 02:21:15;;;;;;;1.75;1.42;;;1.50;84.40;;;;;;5012454;28;20022;-79
2022/02/24 02:23:41;;;;;;;2.15;1.50;;;1.50;84.20;;;;;;4997026;28;20073;-80
2022/02/24 02:26:06;;;;;;;3.90;1.58;;;1.50;84.10;;;;;;5016417;28;20018;-79
2022/02/24 02:28:32;;;;;;;1.67;1.10;;;1.50;84.30;;;;;;5016809;28;20253;-79
2022/02/24 02:30:58;;;;;;;2.28;1.50;;;1.50;83.50;;;;;;5014754;28;20029;-80
2022/02/24 02:33:24;;;;;;;2.95;1.55;;;1.50;83.10;;;;;;5013470;28;20037;-80
2022/02/24 02:35:50;;;;;;;2.03;1.40;;;1.50;83.10;;;;;;5010943;28;20046;-79
2022/02/24 02:38:15;;;;;;;1.58;1.40;;;1.60;83.30;;;;;;4998278;28;20027;-78
2022/02/24 02:40:41;;;;;;;1.90;1.48;;;1.60;83.40;;;;;;5012146;28;20366;-82
2022/02/24 02:43:08;;;;;;;4.32;1.63;;;1.60;83.50;;;;;;5007836;28;20069;-80
2022/02/24 02:45:35;;;;;;;1.73;1.63;;;1.50;83.60;;;;;;4993368;28;20419;-80
2022/02/24 02:48:01;;;;;;;3.00;1.90;;;1.50;84.00;;;;;;4993651;28;20042;-79
2022/02/24 02:50:30;;;;;;;2.92;2.13;;;1.50;84.30;;;;;;4993575;28;20280;-80
2022/02/24 02:52:55;;;;;;;2.70;2.50;;;1.50;84.60;;;;;;5005378;28;20498;-79
2022/02/24 02:55:21;;;;;;;3.65;2.22;;;1.40;85.10;;;;;;5012788;28;20117;-79
2022/02/24 02:57:48;;;;;;;3.75;1.60;;;1.30;85.70;;;;;;5015904;28;20383;-79
2022/02/24 03:00:15;;;;;;;4.28;2.50;;;1.20;86.20;;;;;;5026853;28;20065;-80
2022/02/24 03:02:41;;;;;;;3.13;2.22;;;1.20;86.70;;;;;;5014005;28;20159;-80
2022/02/24 03:05:08;;;;;;;3.38;2.45;;;1.20;86.90;;;;;;5014286;28;20040;-78
2022/02/24 03:07:34;;;;;;;5.82;2.72;;;1.20;87.20;;;;;;4995386;28;20022;-79
2022/02/24 03:10:01;;;;;;;4.35;2.40;;;1.10;87.40;;;;;;4995071;28;20475;-79
2022/02/24 03:12:27;;;;;;;6.97;2.05;;;1.10;87.80;;;;;;5011732;28;20064;-80
2022/02/24 03:14:52;;;;;;;2.65;2.05;;;1.10;88.00;;;;;;5011568;28;20057;-79
2022/02/24 03:17:18;;;;;;;4.13;2.67;;;1.10;88.20;;;;;;4993971;28;20407;-80
2022/02/24 03:19:44;;;;;;;2.97;2.20;;;1.10;88.50;;;;;;5009604;28;20034;-79
2022/02/24 03:22:11;;;;;;;4.03;2.50;;;1.10;88.70;;;;;;5010896;28;20025;-80
2022/02/24 03:24:38;;;;;;;4.18;2.30;;;1.10;89.10;;;;;;5011514;28;20026;-80
2022/02/24 03:27:04;;;;;;;2.83;2.05;;;1.10;89.10;;;;;;5012678;28;20022;-79
2022/02/24 03:29:31;;;;;;;3.97;2.53;;;1.10;89.10;;;;;;5012341;28;20026;-79
2022/02/24 03:31:57;;;;;;;3.42;2.75;;;1.10;89.90;;;;;;5001622;28;20018;-80
2022/02/24 03:34:23;;;;;;;4.65;2.50;;;1.10;90.00;;;;;;5006270;28;20053;-79
2022/02/24 03:36:49;;;;;;;3.33;2.38;;;1.10;89.80;;;;;;4992298;28;20049;-79
2022/02/24 03:39:15;;;;;;;4.75;3.47;;;1.10;89.90;;;;;;4992308;28;20085;-83
2022/02/24 03:41:41;;;;;;;3.92;2.50;;;1.10;90.00;;;;;;4975805;28;20483;-81
2022/02/24 03:44:06;;;;;;;3.40;2.85;;;1.10;90.10;;;;;;4976039;28;20154;-80
2022/02/24 03:46:32;;;;;;;4.15;2.85;;;1.10;90.10;;;;;;4993757;28;20026;-80
2022/02/24 03:48:58;;;;;;;3.35;2.47;;;1.10;90.10;;;;;;4975670;28;20030;-79
2022/02/24 03:51:24;;;;;;;3.78;2.25;;;1.00;90.10;;;;;;4992941;28;20435;-81
2022/02/24 03:53:50;;;;;;;4.00;2.83;;;1.00;90.20;;;;;;4992719;28;20026;-79
2022/02/24 03:56:15;;;;;;;4.93;3.63;;;1.00;90.30;;;;;;4991931;28;20065;-78
2022/02/24 03:58:41;;;;;;;4.85;2.88;;;1.00;90.30;;;;;;4971777;28;20048;-81
2022/02/24 04:01:07;;;;;;;4.75;2.85;;;1.00;90.40;;;;;;4973023;28;20439;-79
2022/02/24 04:03:33;;;;;;;4.75;2.88;;;1.00;90.50;;;;;;4972138;28;20404;-80
2022/02/24 04:05:59;;;;;;;6.35;2.70;;;1.00;90.60;;;;;;4978410;28;20027;-78
2022/02/24 04:08:25;;;;;;;4.50;3.03;;;1.00;90.60;;;;;;4977193;28;20047;-79
2022/02/24 04:10:51;;;;;;;6.22;3.58;;;1.00;90.70;;;;;;4977678;28;20038;-79
2022/02/24 04:13:16;;;;;;;5.97;3.70;;;1.00;90.70;;;;;;4975481;28;20022;-80
2022/02/24 04:15:42;;;;;;;6.03;3.03;;;1.00;90.80;;;;;;4992269;28;20449;-78
2022/02/24 04:18:08;;;;;;;8.73;3.55;;;1.10;90.80;;;;;;4992181;28;20499;-78
2022/02/24 04:20:34;;;;;;;4.22;2.88;;;1.10;90.80;;;;;;4974365;28;20053;-79
2022/02/24 04:23:00;;;;;;;5.18;3.78;;;1.00;90.80;;;;;;4994012;28;20094;-80
2022/02/24 04:25:26;;;;;;;7.65;4.25;;;1.00;90.80;;;;;;4991938;28;20030;-79
2022/02/24 04:27:52;;;;;;;9.82;4.32;;;1.00;90.90;;;;;;4992203;28;20023;-80
2022/02/24 04:30:20;;;;;;;5.05;3.45;;;1.00;91.00;;;;;;4992447;28;20484;-81
2022/02/24 04:32:47;;;;;;;6.18;3.42;;;1.00;91.00;;;;;;4991903;28;20027;-81
2022/02/24 04:35:14;;;;;;;12.70;4.70;;;1.10;91.00;;;;;;4998885;28;20077;-79
2022/02/24 04:37:40;;;;;;;6.18;4.00;;;1.10;91.00;;;;;;5011732;28;20064;-79
2022/02/24 04:40:08;;;;;;;4.68;3.05;;;1.10;90.90;;;;;;5002596;28;20073;-79
2022/02/24 04:42:33;;;;;;;4.45;3.60;;;1.10;90.90;;;;;;5011113;28;20034;-81
2022/02/24 04:45:01;;;;;;;4.30;2.88;;;1.00;90.90;;;;;;5015338;28;20033;-83
2022/02/24 04:47:27;;;;;;;9.13;4.95;;;1.00;90.90;;;;;;5002095;28;20045;-84
2022/02/24 04:49:54;;;;;;;7.68;3.97;;;1.00;91.00;;;;;;5032932;28;20034;-80
2022/02/24 04:52:20;;;;;;;5.97;3.63;;;1.10;91.00;;;;;;5023671;28;20036;-82
2022/02/24 04:54:47;;;;;;;5.53;3.40;;;1.10;90.90;;;;;;5015557;28;20490;-77
2022/02/24 04:57:13;;;;;;;5.60;3.05;;;1.00;90.90;;;;;;5015786;28;20116;-80
2022/02/24 04:59:39;;;;;;;4.72;3.42;;;1.10;91.10;;;;;;4998080;28;20045;-80
2022/02/24 05:02:05;;;;;;;4.45;3.30;;;1.00;90.80;;;;;;5013770;28;20789;-77
2022/02/24 05:04:31;;;;;;;9.48;4.07;;;1.00;90.90;;;;;;5014201;28;20033;-80
2022/02/24 05:06:59;;;;;;;5.63;3.38;;;1.00;90.90;;;;;;5014723;28;20515;-78
2022/02/24 05:09:25;;;;;;;7.85;4.63;;;1.00;90.90;;;;;;5014638;28;20456;-77
2022/02/24 05:11:52;;;;;;;6.43;3.40;;;1.00;90.90;;;;;;5014012;28;20088;-78
2022/02/24 05:14:18;;;;;;;11.68;4.32;;;1.00;90.90;;;;;;5013700;28;20037;-78
2022/02/24 05:16:44;;;;;;;7.38;4.32;;;1.00;90.80;;;;;;5014866;28;20152;-80
2022/02/24 05:19:10;;;;;;;5.88;4.10;;;1.00;90.90;;;;;;5014749;28;20049;-77
2022/02/24 05:21:37;;;;;;;5.90;3.83;;;1.00;91.00;;;;;;5015106;28;20022;-80
2022/02/24 05:24:03;;;;;;;6.25;3.58;;;1.00;91.00;;;;;;5015314;28;20018;-79
2022/02/24 05:26:29;;;;;;;7.22;5.05;;;1.00;91.00;;;;;;5014953;28;20026;-79
2022/02/24 05:28:55;;;;;;;5.28;3.15;;;1.00;91.20;;;;;;5015237;28;20022;-79
2022/02/24 05:31:21;;;;;;;8.38;3.97;;;1.00;91.20;;;;;;5014568;28;20101;-78
2022/02/24 05:33:46;;;;;;;5.78;3.83;;;1.10;91.30;;;;;;5014533;28;20026;-79
2022/02/24 05:36:12;;;;;;;8.50;4.03;;;1.10;91.20;;;;;;5014273;28;20141;-80
2022/02/24 05:38:38;;;;;;;5.25;3.88;;;1.10;91.10;;;;;;5014187;28;20475;-79
2022/02/24 05:41:04;;;;;;;5.05;3.53;;;1.10;91.10;;;;;;4996139;28;20061;-79
2022/02/24 05:43:30;;;;;;;6.43;3.88;;;1.10;91.10;;;;;;5014327;28;20026;-79
2022/02/24 05:45:57;;;;;;;5.72;3.85;;;1.10;91.10;;;;;;5014298;28;20033;-79
2022/02/24 05:48:24;;;;;;;5.00;3.40;;;1.10;91.10;;;;;;5014085;28;20022;-79
2022/02/24 05:50:50;;;;;;;6.35;3.85;;;1.00;91.00;;;;;;5014135;28;20018;-80
2022/02/24 05:53:16;;;;;;;6.72;4.40;;;1.00;91.00;;;;;;5014348;28;20029;-79
2022/02/24 05:55:42;;;;;;;6.53;4.38;;;1.00;91.00;;;;;;5013602;28;20021;-81
2022/02/24 05:58:07;;;;;;;7.80;4.53;;;1.10;91.10;;;;;;5013208;28;20034;-79
2022/02/24 06:00:33;;;;;;;8.98;4.07;;;1.10;91.10;;;;;;5013892;28;20491;-78
2022/02/24 06:02:59;;;;;;;8.40;4.80;;;1.20;91.00;;;;;;5013706;28;20030;-79
2022/02/24 06:05:25;;;;;;;5.35;3.47;;;1.20;90.80;;;;;;4996207;28;20033;-80
2022/02/24 06:07:51;;;;;;;7.63;4.32;;;1.20;90.60;;;;;;5014044;28;20502;-80
2022/02/24 06:10:17;;;;;;;7.60;4.85;;;1.20;90.50;;;;;;5016288;28;20376;-77
2022/02/24 06:12:43;;;;;;;10.15;5.03;;;1.20;90.50;;;;;;5018746;28;20821;-79
2022/02/24 06:15:10;;;;;;;7.30;4.72;;;1.30;90.30;;;;;;5016681;28;20045;-78
2022/02/24 06:17:36;;;;;;;7.43;3.70;;;1.30;90.10;;;;;;5017445;28;20021;-80
2022/02/24 06:20:04;;;;;;;7.45;3.80;;;1.30;89.90;;;;;;5014316;28;20034;-78
2022/02/24 06:22:30;;;;;;;9.15;3.63;;;1.30;89.70;;;;;;5013907;28;20050;-80
2022/02/24 06:24:56;;;;;;;7.30;4.47;;;1.20;89.80;;;;;;5013487;28;20440;-78
2022/02/24 06:27:21;;;;;;;6.20;4.00;;;1.20;89.80;;;;;;5014401;28;20021;-76
2022/02/24 06:29:48;;;;;;;8.63;3.72;;;1.20;89.90;;;;;;5013356;28;20037;-79
2022/02/24 06:32:14;;;;;;;7.50;4.00;;;1.20;90.00;;;;;;5012698;28;20037;-78
2022/02/24 06:34:40;;;;;;;6.75;4.35;;;1.30;89.90;;;;;;5014190;28;20033;-80
2022/02/24 06:37:07;;;;;;;4.30;3.28;;;1.40;89.50;;;;;;5019492;28;20434;-79
2022/02/24 06:39:33;;;;;;;6.88;3.80;;;1.40;88.30;;;;;;5022865;28;20042;-79
2022/02/24 06:41:59;;;;;;;7.40;3.63;;;1.40;87.50;;;;;;5017339;28;20631;-80
2022/02/24 06:44:26;;;;;;;4.50;2.47;;;1.40;86.70;;;;;;5016299;28;20025;-79
2022/02/24 06:46:51;;;;;;;6.00;3.33;;;1.30;85.90;;;;;;5013529;28;20026;-79
2022/02/24 06:49:17;;;;;;;6.95;3.25;;;1.30;85.10;;;;;;5016192;28;20487;-80
2022/02/24 06:51:44;;;;;;;9.93;3.45;;;1.30;85.10;;;;;;5014264;28;20029;-78
2022/02/24 06:54:10;;;;;;;6.67;3.57;;;1.30;84.80;;;;;;5014370;28;20029;-80
2022/02/24 06:56:36;;;;;;;7.30;3.33;;;1.30;84.40;;;;;;5014759;28;20061;-80
2022/02/24 06:59:05;;;;;;;5.43;3.40;;;1.30;83.60;;;;;;5020787;28;20033;-79
2022/02/24 07:01:31;;;;;;;6.82;3.42;;;1.30;83.40;;;;;;5023128;28;20375;-77
2022/02/24 07:03:57;;;;;;;3.88;2.97;;;1.30;83.50;;;;;;5020807;28;20085;-78
2022/02/24 07:06:26;;;;;;;7.40;3.85;;;1.40;83.40;;;;;;5015873;28;20097;-76
2022/02/24 07:08:52;;;;;;;5.97;3.47;;;1.40;83.10;;;;;;5001391;28;20026;-79
2022/02/24 07:11:18;;;;;;;7.57;3.20;;;1.50;83.10;;;;;;5017315;28;20037;-77
2022/02/24 07:13:43;;;;;;;5.90;4.10;;;1.60;82.90;;;;;;5018018;28;20064;-79
2022/02/24 07:16:09;;;;;;;9.43;3.72;;;1.60;82.80;;;;;;5013341;28;20057;-80
2022/02/24 07:18:35;;;;;;;6.95;3.28;;;1.70;82.80;;;;;;5012788;28;20022;-81
2022/02/24 07:21:01;;;;;;;8.52;3.90;;;1.70;82.20;;;;;;4995467;28;20494;-79
2022/02/24 07:23:26;;;;;;;7.45;3.55;;;1.70;81.90;;;;;;5013123;28;20022;-79
2022/02/24 07:25:58;;;;;;;6.18;3.97;;;1.70;81.70;;;;;;5012266;28;20552;-81
2022/02/24 07:28:24;;;;;;;7.20;3.33;;;1.70;81.60;;;;;;5013497;28;20085;-78
2022/02/24 07:30:50;;;;;;;8.40;5.40;;;1.60;81.80;;;;;;5015162;28;20022;-80
2022/02/24 07:33:16;;;;;;;10.82;6.53;;;1.70;82.10;;;;;;4998050;28;20026;-80
2022/02/24 07:35:42;;;;;;;9.10;4.38;;;1.70;82.30;;;;;;5013591;28;20050;-79
2022/02/24 07:38:08;;;;;;;7.60;4.30;;;1.70;82.20;;;;;;5013634;28;20384;-78
2022/02/24 07:40:34;;;;;;;8.55;4.65;;;1.70;82.30;;;;;;5012611;28;20048;-80
2022/02/24 07:42:59;;;;;;;9.60;5.47;;;1.70;82.60;;;;;;5013568;28;20049;-81
2022/02/24 07:45:25;;;;;;;6.05;4.28;;;1.70;82.80;;;;;;4999739;28;20034;-79
2022/02/24 07:47:51;;;;;;;7.55;4.10;;;1.70;82.20;;;;;;5014658;28;20101;-81
2022/02/24 07:50:17;;;;;;;7.68;4.65;;;1.70;82.10;;;;;;5013689;28;20030;-80
2022/02/24 07:52:44;;;;;;;6.05;3.17;;;1.70;82.40;;;;;;5013767;28;20030;-80
2022/02/24 07:55:11;;;;;;;4.90;3.47;;;1.80;81.50;;;;;;4995602;28;20031;-80
2022/02/24 07:57:41;;;;;;;6.93;3.90;;;1.70;81.00;;;;;;4995498;28;20061;-80
2022/02/24 08:00:14;;;;;;;5.20;3.83;;;1.70;81.00;;;;;;5016748;28;20511;-80
2022/02/24 08:02:44;;;;;;;6.35;3.70;;;1.80;81.00;;;;;;5016721;28;20018;-80
2022/02/24 08:05:11;;;;;;;6.00;3.28;;;1.70;80.50;;;;;;5001861;28;20094;-81
2022/02/24 08:07:38;;;;;;;9.23;4.85;;;1.70;80.50;;;;;;5016658;28;20398;-81
2022/02/24 08:10:05;;;;;;;7.72;4.07;;;1.80;80.80;;;;;;5014927;28;20069;-79
2022/02/24 08:12:42;;;;;;;9.88;4.28;;;1.90;81.00;;;;;;5014021;28;20022;-81
2022/02/24 08:15:12;;;;;;;4.20;3.00;;;1.80;80.90;;;;;;4993361;28;20026;-78
2022/02/24 08:17:38;;;;;;;5.82;3.45;;;1.90;80.30;;;;;;4993534;28;20031;-80
2022/02/24 08:20:07;;;;;;;7.35;3.35;;;1.80;80.00;;;;;;4996511;28;20031;-78
2022/02/24 08:22:49;;;;;;;11.18;4.15;;;1.80;80.00;;;;;;5000694;28;20031;-79
2022/02/24 08:25:18;;;;;;;7.18;3.92;;;1.90;80.40;;;;;;4985301;28;20022;-79
2022/02/24 08:27:44;;;;;;;3.35;2.65;;;1.90;80.30;;;;;;5002192;28;20040;-80
2022/02/24 08:30:17;;;;;;;3.47;2.80;;;1.90;79.00;;;;;;5022531;28;20068;-80
2022/02/24 08:32:45;;;;;;;6.60;3.33;;;1.80;78.30;;;;;;5009230;28;20030;-79
2022/02/24 08:35:12;;;;;;;12.80;5.68;;;1.80;78.40;;;;;;5021816;28;20042;-79
2022/02/24 08:37:38;;;;;;;7.75;4.32;;;1.80;79.10;;;;;;5013515;28;20014;-81
2022/02/24 08:40:05;;;;;;;7.88;4.00;;;1.70;79.70;;;;;;5004736;28;20525;-81
2022/02/24 08:42:31;;;;;;;10.50;5.57;;;1.80;80.20;;;;;;5004200;28;20098;-79
2022/02/24 08:44:56;;;;;;;8.18;4.00;;;1.90;80.50;;;;;;5016738;28;20025;-80
2022/02/24 08:47:23;;;;;;;13.88;5.32;;;1.90;80.50;;;;;;5016939;28;20044;-80
2022/02/24 08:49:51;;;;;;;6.40;4.43;;;1.90;80.50;;;;;;5017607;28;20538;-81
2022/02/24 08:52:17;;;;;;;;;;;1.90;80.70;;;;;;5003412;28;20120;-79
2022/02/24 08:54:43;;;;;;;5.95;3.38;;;1.90;81.00;;;;;;5019192;28;19911;-80
2022/02/24 08:57:09;;;;;;;6.63;3.78;;;1.80;80.70;;;;;;5016714;28;20026;-79
2022/02/24 08:59:36;;;;;;;7.55;3.28;;;1.80;80.60;;;;;;4999038;28;20112;-78
2022/02/24 09:02:02;;;;;;;5.72;2.83;;;1.90;81.00;;;;;;5015651;28;20033;-79
2022/02/24 09:04:28;;;;;;;5.03;3.55;;;1.90;80.30;;;;;;5016747;28;20048;-80
2022/02/24 09:06:54;;;;;;;7.63;3.05;;;2.00;80.00;;;;;;5016504;28;20489;-79
2022/02/24 09:09:19;;;;;;;3.83;2.28;;;2.10;79.20;;;;;;5019674;28;20030;-77
2022/02/24 09:11:45;;;;;;;6.05;3.00;;;2.10;78.10;;;;;;5018611;28;20042;-77
2022/02/24 09:14:11;;;;;;;6.82;3.47;;;2.10;78.10;;;;;;5016910;28;20029;-79
2022/02/24 09:16:38;;;;;;;4.95;2.63;;;2.10;77.90;;;;;;5014669;28;20434;-81
2022/02/24 09:19:03;;;;;;;8.05;3.95;;;2.00;77.40;;;;;;5015509;28;20533;-80
2022/02/24 09:21:29;;;;;;;6.68;3.20;;;2.00;77.60;;;;;;4998312;28;20029;-79
2022/02/24 09:23:55;;;;;;;9.65;4.10;;;2.10;77.80;;;;;;4998742;28;20155;-78
2022/02/24 09:26:21;;;;;;;7.97;4.28;;;2.10;77.80;;;;;;4998304;28;20022;-80
2022/02/24 09:28:47;;;;;;;6.43;3.58;;;2.10;77.40;;;;;;4997933;28;20037;-78
2022/02/24 09:31:13;;;;;;;4.80;3.08;;;2.00;77.10;;;;;;4997121;28;20509;-80
2022/02/24 09:33:39;;;;;;;6.38;3.67;;;2.00;77.40;;;;;;5015254;28;20033;-78
2022/02/24 09:36:05;;;;;;;7.20;3.63;;;2.00;77.60;;;;;;5015312;28;20041;-79
2022/02/24 09:38:30;;;;;;;9.73;3.55;;;2.00;77.70;;;;;;5015198;28;20108;-80
2022/02/24 09:40:56;;;;;;;7.38;3.85;;;1.90;78.30;;;;;;5015169;28;20022;-77
2022/02/24 09:43:28;;;;;;;6.53;4.50;;;2.00;78.90;;;;;;5015439;28;20070;-79
2022/02/24 09:46:02;;;;;;;8.50;4.13;;;2.00;79.50;;;;;;5015444;28;20108;-78
2022/02/24 09:48:31;;;;;;;5.95;3.33;;;2.00;79.80;;;;;;5013690;28;20068;-81
2022/02/24 09:50:58;;;;;;;6.15;3.97;;;2.00;80.20;;;;;;5014997;28;20049;-79
2022/02/24 09:53:27;;;;;;;5.95;3.88;;;2.00;80.10;;;;;;5015574;28;20030;-80
2022/02/24 09:55:53;;;;;;;6.80;4.18;;;1.90;80.20;;;;;;4998937;28;20030;-79
2022/02/24 09:58:21;;;;;;;4.95;4.07;;;1.90;80.20;;;;;;5019700;28;20097;-81
2022/02/24 10:00:48;;;;;;;9.30;4.85;;;2.00;80.00;;;;;;5018016;28;20052;-79
2022/02/24 10:03:30;;;;;;;7.60;3.83;;;1.90;79.70;;;;;;5014923;28;20168;-81
2022/02/24 10:05:58;;;;;;;6.78;4.15;;;2.00;79.60;;;;;;5013436;28;20068;-80
2022/02/24 10:08:28;;;;;;;5.20;3.60;;;2.00;79.50;;;;;;4996949;28;20018;-78
2022/02/24 10:10:55;;;;;;;8.15;3.65;;;2.00;79.20;;;;;;4995152;28;20062;-79
2022/02/24 10:13:21;;;;;;;4.32;3.47;;;2.10;79.00;;;;;;4995270;28;20026;-79
2022/02/24 10:15:54;;;;;;;7.18;3.30;;;2.10;78.70;;;;;;4993764;28;20391;-79
2022/02/24 10:18:24;;;;;;;6.53;3.38;;;2.10;77.80;;;;;;4995614;28;20037;-80
2022/02/24 10:20:58;;;;;;;4.15;3.20;;;2.10;77.50;;;;;;5003118;28;20132;-79
2022/02/24 10:23:35;;;;;;;8.80;4.30;;;2.10;77.20;;;;;;5014945;28;20072;-81
2022/02/24 10:26:04;;;;;;;8.60;4.82;;;2.20;76.70;;;;;;5004873;28;20525;-80
2022/02/24 10:28:46;;;;;;;6.75;3.22;;;2.30;76.10;;;;;;5026231;28;20021;-81
2022/02/24 10:31:28;;;;;;;4.88;3.50;;;2.40;75.50;;;;;;5015379;28;20462;-79
2022/02/24 10:34:10;;;;;;;6.75;3.55;;;2.50;75.00;;;;;;5018338;28;20564;-78
2022/02/24 10:36:40;;;;;;;4.28;2.92;;;2.50;73.10;;;;;;4998723;28;20049;-82
2022/02/24 10:39:11;;;;;;;9.55;3.55;;;2.50;72.40;;;;;;4996984;28;20081;-80
2022/02/24 10:41:38;;;;;;;4.60;3.17;;;2.60;72.30;;;;;;5014073;28;20026;-82
2022/02/24 10:44:12;;;;;;;6.63;3.60;;;2.70;71.80;;;;;;4996208;28;20168;-80
2022/02/24 10:46:38;;;;;;;5.13;3.10;;;2.60;71.30;;;;;;5015147;28;20522;-79
2022/02/24 10:49:04;;;;;;;3.60;2.10;;;2.60;71.90;;;;;;5013070;28;20021;-80
2022/02/24 10:51:32;;;;;;;5.13;2.33;;;2.60;71.00;;;;;;4996704;28;20455;-81
2022/02/24 10:54:14;;;;;;;4.40;3.38;;;2.50;70.80;;;;;;4995522;28;20026;-77
2022/02/24 10:56:42;;;;;;;3.10;1.83;;;2.50;71.20;;;;;;5013560;28;20026;-78
2022/02/24 10:59:09;;;;;;;7.82;3.20;;;2.40;70.40;;;;;;5016830;28;20030;-80
2022/02/24 11:01:35;;;;;;;3.38;2.05;;;2.40;70.00;;;;;;5014691;28;20021;-80
2022/02/24 11:04:03;;;;;;;2.70;2.13;;;2.40;69.70;;;;;;5013906;28;20083;-80
2022/02/24 11:06:33;;;;;;;2.20;1.85;;;2.50;69.40;;;;;;5012781;28;20022;-78
2022/02/24 11:09:00;;;;;;;4.70;1.80;;;2.50;69.90;;;;;;5014158;28;20514;-79
2022/02/24 11:11:32;;;;;;;3.97;2.45;;;2.40;68.80;;;;;;5015587;28;20212;-76
2022/02/24 11:14:00;;;;;;;3.05;2.13;;;2.40;68.90;;;;;;5017003;28;20026;-79
2022/02/24 11:16:28;;;;;;;3.55;2.20;;;2.30;68.70;;;;;;5024187;28;20036;-80
2022/02/24 11:18:57;;;;;;;;;;;2.30;69.00;;;;;;5014766;28;20391;-79
2022/02/24 11:21:23;;;;;;;5.15;2.40;;;2.40;69.40;;;;;;4995837;28;19909;-81
2022/02/24 11:23:51;;;;;;;3.55;1.90;;;2.40;69.10;;;;;;5014245;28;20034;-80
2022/02/24 11:26:23;;;;;;;3.80;2.65;;;2.50;69.60;;;;;;4996289;28;20048;-82
2022/02/24 11:29:00;;;;;;;4.45;2.70;;;2.50;69.00;;;;;;5015434;28;20048;-79
2022/02/24 11:32:10;;;;;;;3.70;2.00;;;2.50;68.70;;;;;;5013688;28;20113;-80
2022/02/24 11:35:16;;;;;;;10.77;3.30;;;2.40;68.70;;;;;;5013670;28;20105;-81
2022/02/24 11:37:53;;;;;;;4.38;2.22;;;2.50;69.30;;;;;;5014072;28;20037;-81
2022/02/24 11:40:37;;;;;;;8.70;3.83;;;2.50;69.30;;;;;;4999167;28;20034;-80
2022/02/24 11:43:04;;;;;;;4.22;3.10;;;2.60;69.10;;;;;;5015200;28;20058;-81
2022/02/24 11:45:35;;;;;;;7.93;3.15;;;2.60;68.90;;;;;;5016060;28;20026;-81
2022/02/24 11:48:06;;;;;;;8.18;3.97;;;2.70;68.90;;;;;;4995108;28;20064;-80
2022/02/24 11:50:32;;;;;;;9.57;4.82;;;2.80;69.00;;;;;;5013203;28;20548;-80
2022/02/24 11:52:58;;;;;;;3.83;2.03;;;2.80;68.50;;;;;;5014258;28;20038;-80
2022/02/24 11:55:44;;;;;;;5.15;2.78;;;2.80;68.00;;;;;;5021936;28;20077;-79
2022/02/24 11:58:47;;;;;;;6.82;3.72;;;2.80;68.00;;;;;;5019534;28;20414;-81
2022/02/24 12:01:27;;;;;;;10.55;5.40;;;2.80;68.30;;;;;;5021425;28;20034;-80
2022/02/24 12:04:13;;;;;;;4.85;3.08;;;2.90;67.80;;;;;;5020054;28;20022;-80
2022/02/24 12:06:44;;;;;;;4.80;2.25;;;2.90;67.70;;;;;;5022771;28;20072;-81
2022/02/24 12:09:22;;;;;;;4.47;2.95;;;2.90;67.70;;;;;;5003419;28;20030;-79
2022/02/24 12:11:56;;;;;;;8.00;2.80;;;3.00;67.30;;;;;;5019800;28;20104;-78
2022/02/24 12:14:22;;;;;;;9.38;4.47;;;3.00;67.40;;;;;;5002529;28;20053;-81
2022/02/24 12:17:08;;;;;;;6.75;3.45;;;3.00;67.70;;;;;;5019856;28;20022;-81
2022/02/24 12:19:46;;;;;;;5.28;3.72;;;3.20;67.80;;;;;;5029867;28;20041;-80
2022/02/24 12:22:21;;;;;;;10.57;4.47;;;3.20;67.90;;;;;;4963323;29;20028;-80
2022/02/24 12:25:14;;;;;;;10.48;3.83;;;3.40;67.60;;;;;;4958919;29;20035;-80
2022/02/24 12:27:57;;;;;;;10.32;4.43;;;3.40;67.10;;;;;;4946524;29;20066;-79
2022/02/24 12:30:54;;;;;;;7.13;2.88;;;3.40;66.80;;;;;;4957092;29;20027;-78
2022/02/24 12:33:20;;;;;;;8.98;5.30;;;3.30;66.60;;;;;;4952462;29;20533;-81
2022/02/24 12:35:49;;;;;;;9.98;5.32;;;3.20;66.90;;;;;;4937069;29;20047;-79
2022/02/24 12:38:19;;;;;;;10.38;3.03;;;3.20;67.50;;;;;;4936951;29;20102;-79
2022/02/24 12:40:53;;;;;;;10.43;3.85;;;3.20;67.20;;;;;;4940651;29;20052;-80
2022/02/24 12:43:21;;;;;;;6.90;3.20;;;3.20;67.30;;;;;;4943912;29;20051;-81
2022/02/24 12:45:49;;;;;;;7.43;4.10;;;3.20;67.30;;;;;;4943155;29;20039;-80
2022/02/24 12:48:17;;;;;;;7.13;3.65;;;3.10;67.00;;;;;;4927676;29;20043;-80
2022/02/24 12:50:50;;;;;;;6.82;3.97;;;3.00;67.50;;;;;;4939543;29;20451;-79
2022/02/24 12:53:22;;;;;;;4.85;3.17;;;2.90;68.00;;;;;;4990219;28;20372;-82
2022/02/24 12:55:51;;;;;;;5.05;3.10;;;2.90;68.30;;;;;;5001534;28;20049;-80
2022/02/24 12:58:18;;;;;;;12.63;4.57;;;2.90;68.40;;;;;;5017234;28;20361;-80
2022/02/24 13:00:48;;;;;;;6.80;3.23;;;3.00;68.50;;;;;;5016853;28;20045;-80
2022/02/24 13:03:15;;;;;;;6.28;3.75;;;3.00;68.40;;;;;;4999467;28;20275;-80